Time;durP1;ratioP1;P1;durP2;ratioP2;P2;SDS_P1;SDS_P2;PMS_P1;PMS_P2;Temp;Humidity;BMP_temperature;BMP_pressure;BME280_temperature;BME280_humidity;BME280_pressure;Samples;Min_cycle;Max_cycle;Signal;HPM_P1;HPM_P2
2022/04/10 00:01:54;;;;;;;0.30;0.30;;;;;;;5.78;59.92;101246.13;5252839;27;20047;-81
2022/04/10 00:04:27;;;;;;;0.40;0.40;;;;;;;5.97;58.67;101244.41;5268327;27;20041;-81
2022/04/10 00:06:59;;;;;;;0.38;0.38;;;;;;;6.03;58.07;101246.19;5268850;27;20118;-80
2022/04/10 00:09:29;;;;;;;0.30;0.30;;;;;;;6.06;58.12;101238.38;5283899;27;20035;-81
2022/04/10 00:12:00;;;;;;;0.50;0.50;;;;;;;5.88;59.79;101245.28;5264212;27;20080;-81
2022/04/10 00:14:32;;;;;;;0.63;0.63;;;;;;;5.93;58.28;101248.75;5250080;27;20036;-81
2022/04/10 00:17:04;;;;;;;0.30;0.30;;;;;;;5.96;58.48;101242.66;5257878;27;20575;-81
2022/04/10 00:19:35;;;;;;;0.50;0.50;;;;;;;5.95;57.91;101240.97;5256487;27;20071;-81
2022/04/10 00:22:06;;;;;;;2.60;1.50;;;;;;;5.98;57.98;101244.44;5283144;27;20497;-81
2022/04/10 00:24:36;;;;;;;0.40;0.40;;;;;;;6.07;58.10;101255.75;5264488;27;20379;-81
2022/04/10 00:27:07;;;;;;;0.20;0.20;;;;;;;6.08;58.16;101254.88;5321349;27;20380;-81
2022/04/10 00:29:37;;;;;;;0.30;0.30;;;;;;;5.91;58.62;101247.88;5287585;27;20098;-81
2022/04/10 00:32:08;;;;;;;0.60;0.60;;;;;;;5.98;58.08;101252.25;5293358;27;20170;-81
2022/04/10 00:34:39;;;;;;;0.28;0.28;;;;;;;5.90;58.07;101248.78;5264804;27;20470;-81
2022/04/10 00:37:09;;;;;;;0.40;0.40;;;;;;;5.96;58.12;101243.56;5272678;27;20405;-79
2022/04/10 00:39:40;;;;;;;0.30;0.30;;;;;;;5.99;57.91;101243.56;5267400;27;20038;-79
2022/04/10 00:42:10;;;;;;;0.85;0.85;;;;;;;6.07;57.70;101250.53;5292874;27;20440;-79
2022/04/10 00:44:44;;;;;;;0.20;0.20;;;;;;;5.94;58.57;101244.44;5291888;27;20468;-79
2022/04/10 00:47:14;;;;;;;;;;;;;;;6.05;57.69;101252.28;5284776;27;20054;-79
2022/04/10 00:49:45;;;;;;;0.63;0.63;;;;;;;5.85;59.24;101250.47;5304605;27;19915;-81
2022/04/10 00:52:15;;;;;;;0.65;0.65;;;;;;;5.79;58.90;101251.34;5250311;27;20084;-80
2022/04/10 00:54:46;;;;;;;1.85;0.70;;;;;;;5.83;58.99;101241.78;5290136;27;20458;-80
2022/04/10 00:57:18;;;;;;;0.30;0.30;;;;;;;5.81;59.22;101254.81;5276570;27;20050;-80
2022/04/10 00:59:52;;;;;;;0.65;0.65;;;;;;;5.92;58.00;101256.56;5282365;27;20032;-80
2022/04/10 01:02:22;;;;;;;0.30;0.30;;;;;;;5.84;58.68;101248.75;5295937;27;20039;-80
2022/04/10 01:04:53;;;;;;;0.30;0.30;;;;;;;5.73;59.02;101255.69;5303662;27;20039;-80
2022/04/10 01:07:24;;;;;;;0.30;0.30;;;;;;;5.44;60.15;101256.47;5282388;27;20661;-80
2022/04/10 01:09:55;;;;;;;0.40;0.40;;;;;;;5.54;59.66;101254.78;5270879;27;20462;-80
2022/04/10 01:12:32;;;;;;;0.65;0.65;;;;;;;5.42;60.26;101255.59;5281999;27;20483;-81
2022/04/10 01:15:04;;;;;;;0.38;0.38;;;;;;;5.24;61.17;101249.50;5253584;27;20031;-80
2022/04/10 01:17:35;;;;;;;0.40;0.40;;;;;;;5.41;60.40;101259.09;5279080;27;20035;-80
2022/04/10 01:20:08;;;;;;;1.20;1.20;;;;;;;5.45;59.65;101261.72;5264164;27;20035;-80
2022/04/10 01:22:40;;;;;;;0.40;0.40;;;;;;;5.54;59.49;101260.00;5273268;27;20064;-80
2022/04/10 01:25:10;;;;;;;0.40;0.40;;;;;;;5.30;60.24;101257.31;5261560;27;20043;-81
2022/04/10 01:27:41;;;;;;;7.13;2.47;;;;;;;5.25;60.88;101259.00;5251616;27;20034;-80
2022/04/10 01:30:13;;;;;;;1.02;1.02;;;;;;;5.25;60.46;101256.41;5265250;27;20046;-80
2022/04/10 01:32:43;;;;;;;0.73;0.73;;;;;;;5.21;60.67;101257.28;5245165;27;20081;-80
2022/04/10 01:35:14;;;;;;;0.40;0.40;;;;;;;5.20;61.12;101255.53;5287972;27;20527;-80
2022/04/10 01:37:46;;;;;;;0.35;0.35;;;;;;;5.03;61.47;101261.53;5261058;27;20043;-79
2022/04/10 01:40:16;;;;;;;1.85;0.98;;;;;;;5.16;60.93;101259.00;5281247;28;20532;-79
2022/04/10 01:42:47;;;;;;;1.25;1.25;;;;;;;5.20;60.53;101255.53;5277845;27;20035;-80
2022/04/10 01:45:17;;;;;;;0.20;0.20;;;;;;;5.24;60.76;101253.81;5258622;27;20043;-80
2022/04/10 01:47:52;;;;;;;0.55;0.55;;;;;;;5.19;60.78;101261.59;5297413;27;20164;-79
2022/04/10 01:50:23;;;;;;;0.28;0.28;;;;;;;5.18;60.70;101258.16;5281356;27;20035;-79
2022/04/10 01:52:54;;;;;;;0.40;0.40;;;;;;;5.16;60.87;101259.00;5265367;27;20046;-78
2022/04/10 01:55:24;;;;;;;1.30;1.23;;;;;;;5.17;61.08;101251.19;5263249;27;20043;-79
2022/04/10 01:57:55;;;;;;;0.63;0.63;;;;;;;5.13;60.77;101257.25;5274840;27;20557;-79
2022/04/10 02:00:28;;;;;;;0.82;0.82;;;;;;;5.09;61.01;101252.00;5261803;27;20027;-79
2022/04/10 02:02:58;;;;;;;0.30;0.30;;;;;;;5.06;61.22;101254.63;5270918;27;20126;-79
2022/04/10 02:05:29;;;;;;;1.58;1.48;;;;;;;4.99;61.88;101257.19;5281173;27;20759;-79
2022/04/10 02:07:59;;;;;;;0.32;0.32;;;;;;;4.87;61.83;101257.13;5279662;27;20027;-79
2022/04/10 02:10:33;;;;;;;0.32;0.32;;;;;;;4.79;62.71;101269.22;5275935;28;20398;-78
2022/04/10 02:13:04;;;;;;;0.30;0.30;;;;;;;4.95;61.63;101258.03;5277268;28;20036;-79
2022/04/10 02:15:37;;;;;;;0.30;0.30;;;;;;;4.84;61.54;101260.59;5262490;27;20560;-80
2022/04/10 02:18:08;;;;;;;0.98;0.98;;;;;;;5.02;60.96;101259.81;5284925;27;20498;-79
2022/04/10 02:20:38;;;;;;;0.40;0.40;;;;;;;5.12;61.54;101258.13;5268730;27;20047;-81
2022/04/10 02:23:09;;;;;;;1.88;1.73;;;;;;;5.04;61.58;101259.81;5256488;27;20040;-79
2022/04/10 02:25:40;;;;;;;1.70;0.88;;;;;;;5.11;61.08;101261.59;5269478;27;20051;-79
2022/04/10 02:28:10;;;;;;;0.30;0.30;;;;;;;5.03;60.52;101268.50;5289737;27;20062;-79
2022/04/10 02:30:41;;;;;;;0.65;0.65;;;;;;;5.22;60.37;101264.22;5270370;27;20110;-79
2022/04/10 02:33:11;;;;;;;0.60;0.60;;;;;;;5.09;61.01;101262.41;5276998;27;20019;-79
2022/04/10 02:35:44;;;;;;;0.40;0.40;;;;;;;5.00;62.07;101258.06;5292853;27;20055;-79
2022/04/10 02:38:18;;;;;;;0.38;0.38;;;;;;;5.17;60.58;101271.13;5269320;27;20038;-80
2022/04/10 02:40:49;;;;;;;0.70;0.70;;;;;;;5.02;61.32;101267.59;5251705;27;20042;-80
2022/04/10 02:43:19;;;;;;;0.20;0.20;;;;;;;4.92;62.13;101268.41;5288634;27;20027;-80
2022/04/10 02:45:50;;;;;;;0.20;0.20;;;;;;;4.68;63.60;101262.22;5290796;27;20058;-80
2022/04/10 02:48:20;;;;;;;0.30;0.30;;;;;;;4.78;62.42;101267.47;5287177;27;20027;-80
2022/04/10 02:50:51;;;;;;;0.45;0.45;;;;;;;5.02;62.03;101272.81;5284010;27;20087;-80
2022/04/10 02:53:21;;;;;;;1.25;1.17;;;;;;;4.89;62.50;101276.22;5304178;27;20109;-80
2022/04/10 02:55:52;;;;;;;0.98;0.98;;;;;;;4.93;62.77;101275.34;5261434;27;20043;-79
2022/04/10 02:58:23;;;;;;;1.90;1.77;;;;;;;4.85;62.83;101279.66;5274260;27;20032;-79
2022/04/10 03:00:53;;;;;;;0.30;0.30;;;;;;;4.96;62.28;101277.97;5266586;27;20050;-78
2022/04/10 03:03:23;;;;;;;0.30;0.30;;;;;;;4.86;62.90;101276.19;5259268;27;20100;-79
2022/04/10 03:05:54;;;;;;;0.40;0.40;;;;;;;4.77;63.71;101281.34;5293152;27;20598;-79
2022/04/10 03:08:27;;;;;;;0.25;0.25;;;;;;;4.78;63.04;101280.47;5282167;27;20031;-79
2022/04/10 03:10:58;;;;;;;0.50;0.50;;;;;;;4.74;64.35;101284.78;5286779;27;20399;-81
2022/04/10 03:13:28;;;;;;;11.68;1.52;;;;;;;4.65;64.23;101282.13;5284549;27;20027;-80
2022/04/10 03:15:58;;;;;;;0.75;0.75;;;;;;;4.66;64.05;101278.66;5284812;27;20069;-80
2022/04/10 03:18:29;;;;;;;0.40;0.40;;;;;;;4.87;63.86;101288.34;5306355;27;20030;-80
2022/04/10 03:21:00;;;;;;;0.52;0.52;;;;;;;4.68;64.73;101285.63;5272671;27;20402;-81
2022/04/10 03:23:31;;;;;;;7.13;3.13;;;;;;;4.64;64.55;101285.59;5266737;27;20027;-81
2022/04/10 03:26:01;;;;;;;1.30;1.23;;;;;;;4.92;63.18;101289.22;5261239;27;20293;-80
2022/04/10 03:28:32;;;;;;;0.40;0.40;;;;;;;4.79;63.22;101292.63;5271817;27;20070;-80
2022/04/10 03:31:02;;;;;;;1.08;1.02;;;;;;;4.89;63.50;101294.41;5270887;27;20038;-80
2022/04/10 03:33:32;;;;;;;0.40;0.40;;;;;;;4.86;63.67;101297.00;5290084;27;20023;-81
2022/04/10 03:36:06;;;;;;;0.40;0.40;;;;;;;4.60;65.33;101295.09;5247109;28;20397;-81
2022/04/10 03:38:36;;;;;;;0.52;0.52;;;;;;;4.77;63.54;101286.53;5305472;27;20103;-81
2022/04/10 03:41:07;;;;;;;0.30;0.30;;;;;;;4.78;64.38;101293.47;5280838;27;20121;-80
2022/04/10 03:43:37;;;;;;;0.65;0.65;;;;;;;4.51;66.09;101295.03;5290692;27;20023;-81
2022/04/10 03:46:08;;;;;;;0.30;0.30;;;;;;;4.57;65.79;101289.88;5270587;27;20255;-81
2022/04/10 03:48:38;;;;;;;0.50;0.50;;;;;;;4.57;65.99;101295.94;5306588;27;20053;-80
2022/04/10 03:51:09;;;;;;;0.30;0.30;;;;;;;4.56;66.26;101294.19;5303473;27;20042;-81
2022/04/10 03:53:40;;;;;;;0.30;0.30;;;;;;;4.61;65.30;101296.84;5285938;27;20024;-81
2022/04/10 03:56:10;;;;;;;0.90;0.90;;;;;;;4.73;64.46;101296.94;5265744;27;20035;-81
2022/04/10 03:58:40;;;;;;;0.30;0.30;;;;;;;4.60;65.40;101308.09;5279682;27;20022;-80
2022/04/10 04:01:11;;;;;;;0.60;0.60;;;;;;;4.50;66.40;101309.75;5269351;27;20039;-81
2022/04/10 04:03:42;;;;;;;0.50;0.50;;;;;;;4.52;65.88;101312.34;5286121;27;20079;-80
2022/04/10 04:06:12;;;;;;;0.35;0.35;;;;;;;4.59;64.71;101306.34;5262784;27;20376;-80
2022/04/10 04:08:43;;;;;;;0.30;0.30;;;;;;;4.57;65.98;101321.09;5272922;27;20027;-80
2022/04/10 04:11:16;;;;;;;0.93;0.88;;;;;;;4.63;65.23;101323.72;5279438;27;20031;-81
2022/04/10 04:13:46;;;;;;;0.82;0.82;;;;;;;4.64;65.11;101324.56;5286065;27;20055;-80
2022/04/10 04:16:17;;;;;;;2.00;1.60;;;;;;;4.71;63.51;101319.44;5272053;27;20108;-80
2022/04/10 04:18:48;;;;;;;1.38;1.38;;;;;;;4.76;64.46;101326.38;5305035;27;20487;-79
2022/04/10 04:21:18;;;;;;;0.68;0.68;;;;;;;4.65;64.62;101329.81;5268730;27;20560;-79
2022/04/10 04:23:49;;;;;;;0.50;0.50;;;;;;;4.39;65.86;101330.47;5267027;27;20115;-79
2022/04/10 04:26:19;;;;;;;0.70;0.70;;;;;;;4.57;64.96;101336.69;5281244;27;20092;-79
2022/04/10 04:28:50;;;;;;;0.30;0.30;;;;;;;4.79;64.46;101337.72;5261110;27;20103;-81
2022/04/10 04:31:20;;;;;;;0.43;0.43;;;;;;;4.65;64.61;101348.00;5287717;27;20035;-80
2022/04/10 04:33:51;;;;;;;7.38;1.50;;;;;;;4.71;63.71;101345.44;5287972;27;20026;-80
2022/04/10 04:36:21;;;;;;;2.78;1.42;;;;;;;4.71;63.31;101349.78;5270702;27;20066;-82
2022/04/10 04:38:53;;;;;;;0.38;0.38;;;;;;;4.75;63.56;101350.66;5258419;27;20034;-81
2022/04/10 04:41:23;;;;;;;1.00;0.90;;;;;;;4.77;63.89;101355.00;5268125;27;20092;-81
2022/04/10 04:43:54;;;;;;;0.52;0.52;;;;;;;4.69;63.57;101348.91;5267302;27;20015;-80
2022/04/10 04:46:24;;;;;;;0.57;0.57;;;;;;;4.63;64.40;101347.13;5275155;27;20273;-80
2022/04/10 04:48:55;;;;;;;0.73;0.73;;;;;;;4.73;62.79;101354.13;5267153;27;20034;-81
2022/04/10 04:51:26;;;;;;;0.57;0.57;;;;;;;4.82;63.06;101362.84;5287683;27;20040;-81
2022/04/10 04:53:56;;;;;;;0.93;0.93;;;;;;;4.83;62.45;101354.19;5284235;27;20019;-81
2022/04/10 04:56:27;;;;;;;0.57;0.57;;;;;;;4.86;62.17;101364.59;5272772;27;20096;-81
2022/04/10 04:58:57;;;;;;;0.70;0.70;;;;;;;4.87;61.76;101364.63;5258921;27;20096;-81
2022/04/10 05:01:28;;;;;;;0.43;0.43;;;;;;;4.84;61.85;101371.50;5265853;27;20104;-80
2022/04/10 05:03:59;;;;;;;0.68;0.68;;;;;;;4.87;61.77;101377.63;5275155;27;20557;-81
2022/04/10 05:06:29;;;;;;;0.20;0.20;;;;;;;4.81;61.84;101382.75;5275241;27;20699;-81
2022/04/10 05:09:02;;;;;;;0.47;0.47;;;;;;;4.84;61.85;101379.31;5255946;27;20042;-81
2022/04/10 05:11:35;;;;;;;0.40;0.40;;;;;;;4.88;62.17;101378.50;5284672;27;20287;-81
2022/04/10 05:14:06;;;;;;;0.77;0.75;;;;;;;4.87;61.53;101377.63;5299531;27;20458;-81
2022/04/10 05:16:36;;;;;;;0.20;0.20;;;;;;;4.87;61.77;101371.53;5309059;27;20491;-81
2022/04/10 05:19:07;;;;;;;0.70;0.70;;;;;;;4.84;61.59;101380.19;5281340;27;20404;-80
2022/04/10 05:21:37;;;;;;;0.30;0.30;;;;;;;4.84;61.28;101387.13;5261607;27;20547;-81
2022/04/10 05:24:08;;;;;;;0.65;0.65;;;;;;;4.85;61.21;101388.84;5280358;27;20107;-79
2022/04/10 05:26:39;;;;;;;0.70;0.70;;;;;;;4.89;61.99;101390.63;5281262;27;20039;-77
2022/04/10 05:29:11;;;;;;;0.43;0.43;;;;;;;4.84;62.22;101392.31;5280727;27;20092;-77
2022/04/10 05:31:44;;;;;;;1.38;0.75;;;;;;;4.82;62.67;101399.25;5284636;27;20386;-77
2022/04/10 05:34:14;;;;;;;1.30;1.30;;;;;;;4.64;63.36;101395.66;5300734;27;20038;-77
2022/04/10 05:36:45;;;;;;;0.63;0.63;;;;;;;4.73;61.69;101398.31;5292581;27;20035;-78
2022/04/10 05:39:15;;;;;;;0.57;0.57;;;;;;;4.69;62.54;101393.94;5269633;27;20031;-78
2022/04/10 05:41:46;;;;;;;0.30;0.30;;;;;;;4.76;63.17;101391.38;5252665;27;20681;-78
2022/04/10 05:44:16;;;;;;;0.43;0.43;;;;;;;4.81;63.59;101394.91;5274798;27;20036;-78
2022/04/10 05:46:47;;;;;;;1.15;1.15;;;;;;;4.68;63.31;101404.34;5277217;27;20035;-77
2022/04/10 05:49:17;;;;;;;0.65;0.65;;;;;;;4.74;64.25;101396.59;5287154;27;20035;-78
2022/04/10 05:51:50;;;;;;;0.63;0.63;;;;;;;4.60;65.50;101399.06;5283876;27;20031;-78
2022/04/10 05:54:20;;;;;;;0.55;0.55;;;;;;;4.56;66.49;101407.72;5282442;27;20557;-78
2022/04/10 05:56:51;;;;;;;0.40;0.40;;;;;;;4.53;66.91;101410.25;5272283;27;20110;-78
2022/04/10 05:59:22;;;;;;;0.32;0.32;;;;;;;4.66;65.46;101408.66;5270295;27;20053;-78
2022/04/10 06:01:54;;;;;;;0.32;0.32;;;;;;;4.56;66.42;101413.75;5277442;27;20509;-78
2022/04/10 06:04:25;;;;;;;0.50;0.50;;;;;;;4.59;67.08;101415.50;5270879;27;20086;-78
2022/04/10 06:06:55;;;;;;;1.70;1.60;;;;;;;4.59;67.59;101418.09;5279424;27;20042;-78
2022/04/10 06:09:26;;;;;;;0.75;0.75;;;;;;;4.51;68.19;101420.66;5264986;27;20215;-78
2022/04/10 06:11:56;;;;;;;1.25;0.90;;;;;;;4.51;68.15;101424.97;5317641;27;20108;-78
2022/04/10 06:14:26;;;;;;;0.70;0.70;;;;;;;4.56;68.41;101429.34;5307786;27;20094;-76
2022/04/10 06:16:57;;;;;;;4.13;1.52;;;;;;;4.70;66.27;101437.28;5324947;27;20054;-76
2022/04/10 06:19:27;;;;;;;0.88;0.88;;;;;;;4.75;66.54;101442.53;5297879;28;20077;-77
2022/04/10 06:21:58;;;;;;;0.60;0.60;;;;;;;4.65;68.60;101438.09;5297532;27;20050;-77
2022/04/10 06:24:28;;;;;;;0.32;0.32;;;;;;;4.81;66.18;101439.97;5266138;28;20032;-77
2022/04/10 06:26:59;;;;;;;2.35;1.90;;;;;;;4.84;66.86;101439.13;5285510;28;20031;-77
2022/04/10 06:29:29;;;;;;;1.13;1.13;;;;;;;4.73;68.42;101447.72;5277961;27;20114;-77
2022/04/10 06:32:00;;;;;;;0.68;0.68;;;;;;;4.76;68.28;101443.38;5284125;27;20030;-77
2022/04/10 06:34:30;;;;;;;0.40;0.40;;;;;;;4.68;68.99;101457.19;5266204;28;20135;-77
2022/04/10 06:37:00;;;;;;;1.52;1.42;;;;;;;4.65;69.16;101454.56;5309933;27;20033;-77
2022/04/10 06:39:31;;;;;;;0.50;0.50;;;;;;;4.66;69.52;101452.84;5276231;28;20058;-77
2022/04/10 06:42:05;;;;;;;0.60;0.60;;;;;;;4.69;69.88;101458.06;5258603;28;20040;-77
2022/04/10 06:44:37;;;;;;;0.47;0.47;;;;;;;4.82;69.85;101457.31;5281239;28;20039;-78
2022/04/10 06:47:07;;;;;;;0.40;0.40;;;;;;;5.01;69.15;101447.06;5254982;28;20036;-78
2022/04/10 06:49:38;;;;;;;0.30;0.30;;;;;;;5.05;70.19;101467.03;5253057;27;20123;-78
2022/04/10 06:52:08;;;;;;;8.93;3.15;;;;;;;5.09;70.02;101465.31;5268080;28;20043;-78
2022/04/10 06:54:39;;;;;;;1.60;0.93;;;;;;;5.17;68.62;101458.44;5283187;22;20492;-76
2022/04/10 06:57:09;;;;;;;0.50;0.50;;;;;;;5.16;70.09;101464.53;5244634;28;20659;-77
2022/04/10 06:59:40;;;;;;;0.88;0.88;;;;;;;5.18;70.36;101468.00;5218635;28;20075;-75
2022/04/10 07:02:13;;;;;;;0.50;0.50;;;;;;;5.36;69.71;101464.66;5245506;28;20453;-78
2022/04/10 07:04:44;;;;;;;1.33;1.33;;;;;;;5.29;70.64;101462.88;5254649;28;20975;-77
2022/04/10 07:07:15;;;;;;;0.28;0.28;;;;;;;5.34;68.84;101456.81;5222756;28;20032;-76
2022/04/10 07:09:46;;;;;;;0.80;0.80;;;;;;;5.38;70.44;101462.91;5247084;28;20517;-76
2022/04/10 07:12:16;;;;;;;0.40;0.40;;;;;;;5.43;70.12;101465.56;5244105;28;20036;-76
2022/04/10 07:14:46;;;;;;;0.57;0.57;;;;;;;5.40;70.70;101465.56;5223954;28;20042;-75
2022/04/10 07:17:17;;;;;;;0.40;0.40;;;;;;;5.39;71.07;101466.41;5234074;28;20044;-73
2022/04/10 07:19:48;;;;;;;0.30;0.30;;;;;;;5.43;70.83;101460.34;5227412;27;20110;-77
2022/04/10 07:25:07;;;;;;;2.58;2.38;;;;;;;5.48;70.18;101466.47;5233966;28;20048;-75
2022/04/10 07:27:38;;;;;;;0.77;0.77;;;;;;;5.50;69.91;101477.75;5223293;28;20054;-77
2022/04/10 07:30:09;;;;;;;0.40;0.40;;;;;;;5.55;71.10;101472.56;5226895;28;20108;-76
2022/04/10 07:32:39;;;;;;;0.50;0.50;;;;;;;5.64;69.00;101470.00;5221207;28;20430;-76
2022/04/10 07:35:13;;;;;;;0.82;0.82;;;;;;;5.61;70.27;101470.88;5246050;28;20039;-77
2022/04/10 07:37:43;;;;;;;1.50;1.40;;;;;;;5.68;69.28;101477.84;5254949;28;20044;-77
2022/04/10 07:40:14;;;;;;;0.50;0.50;;;;;;;5.64;70.49;101491.72;5241619;28;20034;-75
2022/04/10 07:42:45;;;;;;;0.38;0.38;;;;;;;5.66;70.07;101492.59;5236886;28;20032;-75
2022/04/10 07:48:05;;;;;;;1.98;0.93;;;;;;;5.87;70.06;101488.38;5270776;28;20259;-77
2022/04/10 07:50:36;;;;;;;1.90;1.80;;;;;;;5.82;70.14;101493.56;5237241;28;20028;-77
2022/04/10 07:53:06;;;;;;;0.40;0.40;;;;;;;5.78;70.10;101491.81;5220150;27;20031;-75
2022/04/10 07:55:37;;;;;;;1.17;1.15;;;;;;;5.79;69.39;101505.69;5253123;28;20567;-76
2022/04/10 07:58:07;;;;;;;1.15;1.15;;;;;;;5.82;69.03;101497.91;5272162;28;20036;-77
2022/04/10 08:00:38;;;;;;;0.57;0.57;;;;;;;5.91;68.99;101499.66;5220051;28;20046;-75
2022/04/10 08:03:08;;;;;;;2.55;2.42;;;;;;;5.92;68.65;101507.47;5241745;27;20380;-76
2022/04/10 08:05:39;;;;;;;1.27;1.25;;;;;;;5.98;67.99;101512.75;5239813;27;20579;-76
2022/04/10 08:08:10;;;;;;;0.40;0.40;;;;;;;6.01;66.92;101516.25;5231884;27;20034;-74
2022/04/10 08:10:40;;;;;;;8.13;2.40;;;;;;;5.98;67.55;101520.56;5255925;28;20035;-75
2022/04/10 08:13:11;;;;;;;0.40;0.40;;;;;;;6.03;68.02;101519.72;5272606;28;20043;-75
2022/04/10 08:15:41;;;;;;;1.55;1.05;;;;;;;6.08;67.79;101523.22;5298985;27;20040;-77
2022/04/10 08:18:12;;;;;;;0.73;0.73;;;;;;;6.10;67.14;101518.88;5239324;28;20043;-76
2022/04/10 08:20:42;;;;;;;0.45;0.45;;;;;;;6.12;67.44;101527.59;5243679;28;20722;-76
2022/04/10 08:23:13;;;;;;;0.95;0.95;;;;;;;6.23;66.62;101531.13;5251332;28;20035;-77
2022/04/10 08:25:43;;;;;;;0.57;0.57;;;;;;;6.26;64.83;101532.88;5289915;27;20066;-75
2022/04/10 08:28:14;;;;;;;0.68;0.68;;;;;;;6.33;64.49;101528.53;5240379;27;20023;-77
2022/04/10 08:30:45;;;;;;;0.60;0.60;;;;;;;6.42;64.12;101528.56;5235793;28;20040;-76
2022/04/10 08:33:15;;;;;;;1.75;0.70;;;;;;;6.52;64.70;101540.75;5251866;27;20506;-78
2022/04/10 08:35:46;;;;;;;0.70;0.70;;;;;;;6.52;65.21;101542.50;5225188;27;20035;-76
2022/04/10 08:38:16;;;;;;;0.35;0.35;;;;;;;6.54;65.87;101544.25;5226431;27;20042;-77
2022/04/10 08:40:48;;;;;;;1.52;1.42;;;;;;;6.56;65.10;101536.44;5264994;28;20590;-76
2022/04/10 08:43:19;;;;;;;0.85;0.85;;;;;;;6.61;62.75;101543.41;5250810;27;20060;-78
2022/04/10 08:45:50;;;;;;;0.50;0.50;;;;;;;6.71;63.78;101541.69;5230746;27;20043;-77
2022/04/10 08:48:22;;;;;;;0.40;0.40;;;;;;;6.81;63.64;101553.03;5226281;27;20035;-77
2022/04/10 08:50:56;;;;;;;1.58;1.48;;;;;;;6.80;62.22;101550.38;5245604;28;20039;-78
2022/04/10 08:53:27;;;;;;;0.95;0.95;;;;;;;6.83;61.55;101553.00;5233275;27;20035;-78
2022/04/10 08:55:58;;;;;;;0.40;0.40;;;;;;;6.88;60.13;101553.88;5251000;28;20046;-78
2022/04/10 08:58:28;;;;;;;0.40;0.40;;;;;;;6.82;59.57;101557.34;5252758;27;20031;-77
2022/04/10 09:00:59;;;;;;;0.50;0.50;;;;;;;6.84;59.74;101553.00;5243337;28;20039;-77
2022/04/10 09:03:30;;;;;;;0.40;0.40;;;;;;;6.91;60.40;101554.75;5238690;28;20028;-77
2022/04/10 09:06:06;;;;;;;0.43;0.43;;;;;;;6.96;59.80;101554.75;5246501;28;20118;-77
2022/04/10 09:08:38;;;;;;;0.32;0.32;;;;;;;7.07;59.30;101554.75;5238258;28;20053;-76
2022/04/10 09:11:10;;;;;;;0.70;0.70;;;;;;;7.11;57.25;101550.44;5229521;28;20028;-76
2022/04/10 09:13:49;;;;;;;0.50;0.50;;;;;;;7.14;57.72;101555.66;5240712;27;20024;-77
2022/04/10 09:16:23;;;;;;;0.32;0.32;;;;;;;7.07;57.60;101549.53;5235012;27;20035;-77
2022/04/10 09:19:00;;;;;;;1.88;0.60;;;;;;;7.16;57.62;101562.59;5259985;28;20027;-76
2022/04/10 09:21:33;;;;;;;1.88;1.15;;;;;;;7.14;57.75;101560.88;5261414;27;20043;-75
2022/04/10 09:24:07;;;;;;;0.60;0.47;;;;;;;7.20;56.95;101553.91;5239546;28;20427;-77
2022/04/10 09:26:46;;;;;;;0.32;0.32;;;;;;;7.25;56.94;101549.56;5254785;27;20056;-74
2022/04/10 09:29:18;;;;;;;0.30;0.30;;;;;;;7.25;57.47;101554.78;5232545;28;20085;-77
2022/04/10 09:31:50;;;;;;;0.50;0.50;;;;;;;7.39;57.13;101556.53;5234504;28;20047;-77
2022/04/10 09:34:23;;;;;;;0.30;0.30;;;;;;;7.50;55.90;101549.56;5293020;27;20043;-78
2022/04/10 09:37:01;;;;;;;0.30;0.30;;;;;;;7.64;56.72;101559.13;5240336;28;20416;-76
2022/04/10 09:39:33;;;;;;;0.30;0.30;;;;;;;7.59;54.36;101553.91;5245666;28;20034;-76
2022/04/10 09:42:12;;;;;;;2.13;0.60;;;;;;;7.51;54.99;101550.44;5261854;28;20050;-77
2022/04/10 09:44:42;;;;;;;0.50;0.50;;;;;;;7.61;54.59;101559.13;5244606;27;20028;-76
2022/04/10 09:47:13;;;;;;;0.30;0.30;;;;;;;7.63;54.91;101560.00;5249064;28;20057;-76
2022/04/10 09:49:44;;;;;;;0.30;0.30;;;;;;;7.66;54.23;101562.59;5249812;27;20035;-76
2022/04/10 09:52:20;;;;;;;0.90;0.90;;;;;;;7.68;54.80;101558.25;5248584;28;20031;-78
2022/04/10 09:54:50;;;;;;;0.43;0.43;;;;;;;7.69;54.85;101560.84;5256406;28;20041;-77
2022/04/10 09:57:22;;;;;;;0.50;0.50;;;;;;;7.64;53.44;101561.75;5244319;28;20328;-77
2022/04/10 09:59:52;;;;;;;0.40;0.40;;;;;;;7.60;52.93;101552.16;5277805;27;20483;-78
2022/04/10 10:02:23;;;;;;;0.30;0.30;;;;;;;7.63;50.28;101562.59;5230414;28;20059;-78
2022/04/10 10:04:56;;;;;;;0.50;0.50;;;;;;;7.74;50.06;101565.19;5225404;27;21034;-76
2022/04/10 10:07:30;;;;;;;0.30;0.30;;;;;;;7.63;49.49;101567.84;5270472;28;20033;-77
2022/04/10 10:10:01;;;;;;;0.30;0.30;;;;;;;7.59;49.92;101558.25;5230550;28;20054;-78
2022/04/10 10:12:34;;;;;;;0.30;0.30;;;;;;;7.60;50.27;101560.00;5246111;28;20034;-76
2022/04/10 10:15:06;;;;;;;0.43;0.43;;;;;;;7.59;50.00;101555.63;5232969;28;20032;-78
2022/04/10 10:17:37;;;;;;;0.40;0.40;;;;;;;7.85;51.65;101559.06;5231342;28;20039;-79
2022/04/10 10:20:09;;;;;;;0.40;0.40;;;;;;;7.81;51.50;101548.63;5280326;28;20048;-77
2022/04/10 10:22:40;;;;;;;0.35;0.35;;;;;;;7.81;51.17;101546.88;5256394;28;20457;-77
2022/04/10 10:25:27;;;;;;;0.40;0.40;;;;;;;7.85;51.46;101546.00;5228549;28;20035;-78
2022/04/10 10:28:19;;;;;;;0.30;0.30;;;;;;;7.94;51.76;101539.03;5242380;28;20040;-76
2022/04/10 10:31:14;;;;;;;0.40;0.40;;;;;;;8.14;51.93;101537.19;5228376;28;20035;-78
2022/04/10 10:33:51;;;;;;;0.30;0.30;;;;;;;8.06;49.78;101541.56;5262543;28;20039;-77
2022/04/10 10:36:27;;;;;;;3.72;1.20;;;;;;;8.08;48.74;101545.06;5228002;28;20057;-77
2022/04/10 10:38:58;;;;;;;0.47;0.47;;;;;;;8.09;49.77;101538.97;5281988;27;20084;-77
2022/04/10 10:41:33;;;;;;;0.30;0.30;;;;;;;8.04;48.93;101552.06;5248524;28;20153;-78
2022/04/10 10:44:41;;;;;;;0.30;0.30;;;;;;;8.06;49.50;101545.94;5232209;28;20043;-74
2022/04/10 10:47:22;;;;;;;0.50;0.50;;;;;;;7.96;48.31;101539.91;5226590;28;20595;-78
2022/04/10 10:49:54;;;;;;;0.30;0.30;;;;;;;8.00;49.31;101549.44;5251599;28;20150;-77
2022/04/10 10:52:27;;;;;;;0.95;0.88;;;;;;;8.09;50.20;101548.56;5262285;28;20066;-77
2022/04/10 10:54:58;;;;;;;;;;;;;;;8.07;50.91;101551.16;5227323;27;20064;-77
2022/04/10 10:57:41;;;;;;;0.30;0.30;;;;;;;8.19;50.75;101548.53;5233598;27;19920;-77
2022/04/10 11:00:19;;;;;;;0.30;0.30;;;;;;;8.28;51.55;101549.34;5258630;28;20435;-75
2022/04/10 11:02:53;;;;;;;0.60;0.60;;;;;;;8.25;51.45;101549.34;5252874;28;20047;-78
2022/04/10 11:05:35;;;;;;;0.70;0.70;;;;;;;8.12;51.11;101548.53;5247174;28;20040;-78
2022/04/10 11:08:13;;;;;;;0.47;0.47;;;;;;;8.22;51.47;101550.25;5265576;27;20367;-75
2022/04/10 11:11:03;;;;;;;0.40;0.40;;;;;;;8.17;51.37;101550.25;5261376;28;20035;-77
2022/04/10 11:13:38;;;;;;;3.05;2.15;;;;;;;8.23;52.00;101546.75;5228145;27;20502;-77
2022/04/10 11:16:10;;;;;;;0.40;0.40;;;;;;;8.31;51.99;101544.97;5283999;27;20453;-77
2022/04/10 11:18:42;;;;;;;0.20;0.20;;;;;;;8.37;52.13;101544.09;5255803;28;20028;-77
2022/04/10 11:21:18;;;;;;;0.40;0.40;;;;;;;8.32;52.34;101536.25;5244433;28;20035;-76
2022/04/10 11:23:50;;;;;;;0.38;0.38;;;;;;;8.51;52.92;101536.22;5229980;27;20051;-75
2022/04/10 11:26:20;;;;;;;0.30;0.30;;;;;;;8.54;52.85;101532.72;5264487;28;20032;-76
2022/04/10 11:28:55;;;;;;;1.25;1.25;;;;;;;8.46;50.37;101538.81;5264131;27;20035;-78
2022/04/10 11:31:35;;;;;;;0.60;0.60;;;;;;;8.50;50.93;101530.09;5263421;28;20036;-76
2022/04/10 11:34:07;;;;;;;0.70;0.70;;;;;;;8.55;50.30;101531.84;5270105;28;20061;-77
2022/04/10 11:36:54;;;;;;;0.40;0.40;;;;;;;8.67;51.76;101531.75;5232829;27;20218;-77
2022/04/10 11:39:31;;;;;;;0.50;0.50;;;;;;;8.75;51.15;101540.41;5259289;28;20035;-77
2022/04/10 11:42:05;;;;;;;0.30;0.30;;;;;;;8.90;51.44;101531.59;5262590;28;20031;-78
2022/04/10 11:44:36;;;;;;;0.40;0.40;;;;;;;8.97;50.16;101545.50;5220781;28;20048;-76
2022/04/10 11:47:25;;;;;;;0.35;0.35;;;;;;;9.05;50.44;101527.13;5259149;28;20130;-76
2022/04/10 11:49:57;;;;;;;2.10;1.95;;;;;;;9.18;49.96;101528.75;5260211;28;20186;-78
2022/04/10 11:52:27;;;;;;;1.13;1.05;;;;;;;9.13;50.50;101531.41;5259815;28;20676;-78
2022/04/10 11:54:58;;;;;;;0.30;0.30;;;;;;;9.20;48.81;101536.63;5259049;27;20044;-77
2022/04/10 11:57:28;;;;;;;0.75;0.75;;;;;;;9.09;48.36;101534.94;5226187;28;20040;-76
2022/04/10 11:59:59;;;;;;;0.30;0.30;;;;;;;9.11;49.63;101525.34;5236759;27;20550;-77
2022/04/10 12:02:30;;;;;;;0.57;0.57;;;;;;;9.38;49.40;101532.97;5251308;28;20038;-76